Terminal Aerodrome Forecast
Issued by NWS Sterling, VA

Current Version | Previous Version | Graphics & Text | Print | Product List | Glossary On
Versions: 1 2 3 4 5 6 7 8 9 10 11 12 13 14 15 16 17 18 19 20 21 22 23 24 25 26 27 28 29 30 31
000
FTUS41 KLWX 041758 AAB
TAFIAD
TAF AMD
KIAD 041758Z 0418/0524 VRB15KT 5SM -TSRA OVC035CB
      TEMPO 0418/0419 VRB25KT 2SM TSRA OVC025CB
     FM041900 10008G16KT P6SM VCTS BKN050CB BKN130
     FM050000 11008G16KT P6SM SCT050
     FM050400 10008KT P6SM BKN015
     FM050600 07006KT P6SM BKN008 OVC015
     FM051400 07006KT P6SM BKN015 BKN050
     FM051600 09006KT P6SM SCT050=

USA.gov is the U.S. government's official web portal to all federal, state and local government web resources and services.